sensor_id;sensor_type;location;lat;lon;timestamp;temperature;humidity
8539;DHT22;4307;53.868;11.680;2023-06-26T00:00:52;21.80;95.50
8539;DHT22;4307;53.868;11.680;2023-06-26T00:03:19;21.80;95.60
8539;DHT22;4307;53.868;11.680;2023-06-26T00:05:45;21.70;95.60
8539;DHT22;4307;53.868;11.680;2023-06-26T00:08:12;21.70;95.80
8539;DHT22;4307;53.868;11.680;2023-06-26T00:10:39;21.60;95.90
8539;DHT22;4307;53.868;11.680;2023-06-26T00:13:05;21.60;96.10
8539;DHT22;4307;53.868;11.680;2023-06-26T00:15:33;21.50;96.30
8539;DHT22;4307;53.868;11.680;2023-06-26T00:18:00;21.40;96.40
8539;DHT22;4307;53.868;11.680;2023-06-26T00:20:29;21.40;96.50
8539;DHT22;4307;53.868;11.680;2023-06-26T00:22:59;21.30;96.70
8539;DHT22;4307;53.868;11.680;2023-06-26T00:25:26;21.30;96.90
8539;DHT22;4307;53.868;11.680;2023-06-26T00:27:52;21.20;97.00
8539;DHT22;4307;53.868;11.680;2023-06-26T00:30:19;21.20;97.20
8539;DHT22;4307;53.868;11.680;2023-06-26T00:32:47;21.20;97.50
8539;DHT22;4307;53.868;11.680;2023-06-26T00:35:14;21.20;97.70
8539;DHT22;4307;53.868;11.680;2023-06-26T00:37:40;21.20;97.80
8539;DHT22;4307;53.868;11.680;2023-06-26T00:40:08;21.20;97.90
8539;DHT22;4307;53.868;11.680;2023-06-26T00:42:35;21.20;98.00
8539;DHT22;4307;53.868;11.680;2023-06-26T00:45:02;21.10;98.50
8539;DHT22;4307;53.868;11.680;2023-06-26T00:47:29;21.10;98.40
8539;DHT22;4307;53.868;11.680;2023-06-26T00:49:57;21.10;98.60
8539;DHT22;4307;53.868;11.680;2023-06-26T00:52:24;21.10;98.90
8539;DHT22;4307;53.868;11.680;2023-06-26T00:54:51;21.20;99.10
8539;DHT22;4307;53.868;11.680;2023-06-26T00:57:18;21.10;99.20
8539;DHT22;4307;53.868;11.680;2023-06-26T00:59:45;21.10;99.30
8539;DHT22;4307;53.868;11.680;2023-06-26T01:02:12;21.00;99.50
8539;DHT22;4307;53.868;11.680;2023-06-26T01:04:45;21.00;99.70
8539;DHT22;4307;53.868;11.680;2023-06-26T01:07:14;21.00;99.90
8539;DHT22;4307;53.868;11.680;2023-06-26T01:09:42;21.00;99.90
8539;DHT22;4307;53.868;11.680;2023-06-26T01:12:09;21.00;99.90
8539;DHT22;4307;53.868;11.680;2023-06-26T01:14:35;21.00;99.90
8539;DHT22;4307;53.868;11.680;2023-06-26T01:17:03;21.00;99.90
8539;DHT22;4307;53.868;11.680;2023-06-26T01:19:31;21.00;99.90
8539;DHT22;4307;53.868;11.680;2023-06-26T01:22:04;21.00;99.90
8539;DHT22;4307;53.868;11.680;2023-06-26T01:24:56;21.10;99.90
8539;DHT22;4307;53.868;11.680;2023-06-26T01:27:28;21.10;99.90
8539;DHT22;4307;53.868;11.680;2023-06-26T01:30:00;21.10;99.90
8539;DHT22;4307;53.868;11.680;2023-06-26T01:32:29;21.10;99.90
8539;DHT22;4307;53.868;11.680;2023-06-26T01:34:59;21.10;99.90
8539;DHT22;4307;53.868;11.680;2023-06-26T01:37:26;21.10;99.90
8539;DHT22;4307;53.868;11.680;2023-06-26T01:39:52;21.10;99.90
8539;DHT22;4307;53.868;11.680;2023-06-26T01:42:19;21.10;99.90
8539;DHT22;4307;53.868;11.680;2023-06-26T01:44:47;21.00;99.90
8539;DHT22;4307;53.868;11.680;2023-06-26T01:47:18;20.90;99.90
8539;DHT22;4307;53.868;11.680;2023-06-26T01:49:49;20.80;99.90
8539;DHT22;4307;53.868;11.680;2023-06-26T01:52:20;20.80;99.90
8539;DHT22;4307;53.868;11.680;2023-06-26T01:54:56;20.70;99.90
8539;DHT22;4307;53.868;11.680;2023-06-26T01:57:26;20.60;99.90
8539;DHT22;4307;53.868;11.680;2023-06-26T01:59:56;20.50;99.90
8539;DHT22;4307;53.868;11.680;2023-06-26T02:02:24;20.40;99.90
8539;DHT22;4307;53.868;11.680;2023-06-26T02:04:51;20.40;99.90
8539;DHT22;4307;53.868;11.680;2023-06-26T02:07:24;20.30;99.90
8539;DHT22;4307;53.868;11.680;2023-06-26T02:09:50;20.20;99.90
8539;DHT22;4307;53.868;11.680;2023-06-26T02:12:17;20.10;99.90
8539;DHT22;4307;53.868;11.680;2023-06-26T02:14:44;20.10;99.90
8539;DHT22;4307;53.868;11.680;2023-06-26T02:17:12;20.10;99.90
8539;DHT22;4307;53.868;11.680;2023-06-26T02:19:38;20.10;99.90
8539;DHT22;4307;53.868;11.680;2023-06-26T02:22:13;20.10;99.90
8539;DHT22;4307;53.868;11.680;2023-06-26T02:24:40;20.10;99.90
8539;DHT22;4307;53.868;11.680;2023-06-26T02:27:06;20.10;99.90
8539;DHT22;4307;53.868;11.680;2023-06-26T02:29:33;20.10;99.90
8539;DHT22;4307;53.868;11.680;2023-06-26T02:32:00;20.10;99.90
8539;DHT22;4307;53.868;11.680;2023-06-26T02:34:28;20.10;99.90
8539;DHT22;4307;53.868;11.680;2023-06-26T02:36:55;20.10;99.90
8539;DHT22;4307;53.868;11.680;2023-06-26T02:39:24;20.00;99.90
8539;DHT22;4307;53.868;11.680;2023-06-26T02:41:50;20.00;99.90
8539;DHT22;4307;53.868;11.680;2023-06-26T02:44:17;20.00;99.90
8539;DHT22;4307;53.868;11.680;2023-06-26T02:46:44;20.10;99.90
8539;DHT22;4307;53.868;11.680;2023-06-26T02:49:10;20.10;99.90
8539;DHT22;4307;53.868;11.680;2023-06-26T02:51:38;20.10;99.90
8539;DHT22;4307;53.868;11.680;2023-06-26T02:54:05;20.20;99.90
8539;DHT22;4307;53.868;11.680;2023-06-26T02:56:32;20.20;99.90
8539;DHT22;4307;53.868;11.680;2023-06-26T02:58:59;20.20;99.90
8539;DHT22;4307;53.868;11.680;2023-06-26T03:01:25;20.30;99.90
8539;DHT22;4307;53.868;11.680;2023-06-26T03:03:52;20.30;99.90
8539;DHT22;4307;53.868;11.680;2023-06-26T03:06:19;20.30;99.90
8539;DHT22;4307;53.868;11.680;2023-06-26T03:08:47;20.30;99.90
8539;DHT22;4307;53.868;11.680;2023-06-26T03:11:14;20.30;99.90
8539;DHT22;4307;53.868;11.680;2023-06-26T03:13:41;20.40;99.90
8539;DHT22;4307;53.868;11.680;2023-06-26T03:16:07;20.30;99.90
8539;DHT22;4307;53.868;11.680;2023-06-26T03:18:34;20.40;99.90
8539;DHT22;4307;53.868;11.680;2023-06-26T03:21:01;20.40;99.90
8539;DHT22;4307;53.868;11.680;2023-06-26T03:23:28;20.40;99.90
8539;DHT22;4307;53.868;11.680;2023-06-26T03:25:56;20.40;99.90
8539;DHT22;4307;53.868;11.680;2023-06-26T03:28:23;20.50;99.90
8539;DHT22;4307;53.868;11.680;2023-06-26T03:30:51;20.60;99.90
8539;DHT22;4307;53.868;11.680;2023-06-26T03:33:18;20.70;99.90
8539;DHT22;4307;53.868;11.680;2023-06-26T03:35:45;20.90;99.90
8539;DHT22;4307;53.868;11.680;2023-06-26T03:38:13;21.00;99.90
8539;DHT22;4307;53.868;11.680;2023-06-26T03:40:40;21.20;99.90
8539;DHT22;4307;53.868;11.680;2023-06-26T03:43:11;21.30;99.90
8539;DHT22;4307;53.868;11.680;2023-06-26T03:45:43;21.30;99.90
8539;DHT22;4307;53.868;11.680;2023-06-26T03:48:12;21.40;99.90
8539;DHT22;4307;53.868;11.680;2023-06-26T03:50:41;21.60;99.90
8539;DHT22;4307;53.868;11.680;2023-06-26T03:53:12;21.70;99.90
8539;DHT22;4307;53.868;11.680;2023-06-26T03:55:43;21.90;99.90
8539;DHT22;4307;53.868;11.680;2023-06-26T03:58:12;22.10;99.90
8539;DHT22;4307;53.868;11.680;2023-06-26T04:00:40;22.30;99.90
8539;DHT22;4307;53.868;11.680;2023-06-26T04:03:16;22.50;99.90
8539;DHT22;4307;53.868;11.680;2023-06-26T04:05:44;22.80;99.90
8539;DHT22;4307;53.868;11.680;2023-06-26T04:08:12;23.00;99.90
8539;DHT22;4307;53.868;11.680;2023-06-26T04:10:40;23.20;99.90
8539;DHT22;4307;53.868;11.680;2023-06-26T04:13:12;23.30;99.90
8539;DHT22;4307;53.868;11.680;2023-06-26T04:15:40;23.50;99.90
8539;DHT22;4307;53.868;11.680;2023-06-26T04:18:08;23.70;99.90
8539;DHT22;4307;53.868;11.680;2023-06-26T04:20:38;24.00;99.90
8539;DHT22;4307;53.868;11.680;2023-06-26T04:23:05;24.20;99.90
8539;DHT22;4307;53.868;11.680;2023-06-26T04:25:32;24.40;99.90
8539;DHT22;4307;53.868;11.680;2023-06-26T04:27:59;24.60;99.90
8539;DHT22;4307;53.868;11.680;2023-06-26T04:30:27;24.80;99.90
8539;DHT22;4307;53.868;11.680;2023-06-26T04:32:53;25.00;99.90
8539;DHT22;4307;53.868;11.680;2023-06-26T04:35:24;25.10;99.90
8539;DHT22;4307;53.868;11.680;2023-06-26T04:37:50;25.20;99.90
8539;DHT22;4307;53.868;11.680;2023-06-26T04:40:17;25.20;99.90
8539;DHT22;4307;53.868;11.680;2023-06-26T04:42:44;25.30;99.90
8539;DHT22;4307;53.868;11.680;2023-06-26T04:45:10;25.50;99.90
8539;DHT22;4307;53.868;11.680;2023-06-26T04:47:38;25.60;99.90
8539;DHT22;4307;53.868;11.680;2023-06-26T04:50:06;25.80;99.90
8539;DHT22;4307;53.868;11.680;2023-06-26T04:52:34;26.00;99.40
8539;DHT22;4307;53.868;11.680;2023-06-26T04:55:01;26.10;99.10
8539;DHT22;4307;53.868;11.680;2023-06-26T04:57:28;26.40;98.70
8539;DHT22;4307;53.868;11.680;2023-06-26T04:59:54;26.50;98.30
8539;DHT22;4307;53.868;11.680;2023-06-26T05:02:21;26.60;98.10
8539;DHT22;4307;53.868;11.680;2023-06-26T05:04:49;26.70;97.80
8539;DHT22;4307;53.868;11.680;2023-06-26T05:07:16;26.90;97.50
8539;DHT22;4307;53.868;11.680;2023-06-26T05:09:42;27.10;97.20
8539;DHT22;4307;53.868;11.680;2023-06-26T05:12:10;27.20;96.80
8539;DHT22;4307;53.868;11.680;2023-06-26T05:14:38;27.40;96.40
8539;DHT22;4307;53.868;11.680;2023-06-26T05:17:04;27.60;96.10
8539;DHT22;4307;53.868;11.680;2023-06-26T05:19:31;27.70;95.60
8539;DHT22;4307;53.868;11.680;2023-06-26T05:22:01;27.90;95.00
8539;DHT22;4307;53.868;11.680;2023-06-26T05:24:29;28.00;94.50
8539;DHT22;4307;53.868;11.680;2023-06-26T05:26:56;28.20;94.30
8539;DHT22;4307;53.868;11.680;2023-06-26T05:29:24;28.40;93.90
8539;DHT22;4307;53.868;11.680;2023-06-26T05:31:52;28.60;93.40
8539;DHT22;4307;53.868;11.680;2023-06-26T05:34:20;28.80;92.90
8539;DHT22;4307;53.868;11.680;2023-06-26T05:36:50;28.90;92.50
8539;DHT22;4307;53.868;11.680;2023-06-26T05:39:19;28.90;92.30
8539;DHT22;4307;53.868;11.680;2023-06-26T05:41:47;29.20;91.80
8539;DHT22;4307;53.868;11.680;2023-06-26T05:44:13;29.30;91.30
8539;DHT22;4307;53.868;11.680;2023-06-26T05:46:40;29.50;90.80
8539;DHT22;4307;53.868;11.680;2023-06-26T05:49:07;29.50;90.20
8539;DHT22;4307;53.868;11.680;2023-06-26T05:51:34;29.50;89.80
8539;DHT22;4307;53.868;11.680;2023-06-26T05:54:01;29.50;89.00
8539;DHT22;4307;53.868;11.680;2023-06-26T05:56:30;29.50;88.00
8539;DHT22;4307;53.868;11.680;2023-06-26T05:58:57;29.50;87.90
8539;DHT22;4307;53.868;11.680;2023-06-26T06:01:24;29.50;87.40
8539;DHT22;4307;53.868;11.680;2023-06-26T06:03:51;29.60;86.90
8539;DHT22;4307;53.868;11.680;2023-06-26T06:06:18;29.60;86.40
8539;DHT22;4307;53.868;11.680;2023-06-26T06:08:45;29.70;86.10
8539;DHT22;4307;53.868;11.680;2023-06-26T06:11:11;29.80;85.70
8539;DHT22;4307;53.868;11.680;2023-06-26T06:13:39;30.00;85.10
8539;DHT22;4307;53.868;11.680;2023-06-26T06:16:06;30.10;84.50
8539;DHT22;4307;53.868;11.680;2023-06-26T06:18:32;30.20;84.50
8539;DHT22;4307;53.868;11.680;2023-06-26T06:20:59;30.20;83.70
8539;DHT22;4307;53.868;11.680;2023-06-26T06:23:26;30.30;83.30
8539;DHT22;4307;53.868;11.680;2023-06-26T06:25:53;30.40;82.40
8539;DHT22;4307;53.868;11.680;2023-06-26T06:28:20;30.30;82.50
8539;DHT22;4307;53.868;11.680;2023-06-26T06:30:48;30.30;82.20
8539;DHT22;4307;53.868;11.680;2023-06-26T06:33:15;30.30;81.90
8539;DHT22;4307;53.868;11.680;2023-06-26T06:35:41;30.30;81.60
8539;DHT22;4307;53.868;11.680;2023-06-26T06:38:08;30.30;81.20
8539;DHT22;4307;53.868;11.680;2023-06-26T06:40:35;30.30;80.90
8539;DHT22;4307;53.868;11.680;2023-06-26T06:43:01;30.30;80.70
8539;DHT22;4307;53.868;11.680;2023-06-26T06:45:28;30.30;80.60
8539;DHT22;4307;53.868;11.680;2023-06-26T06:47:56;30.20;80.50
8539;DHT22;4307;53.868;11.680;2023-06-26T06:50:22;30.10;80.00
8539;DHT22;4307;53.868;11.680;2023-06-26T06:52:49;29.90;79.90
8539;DHT22;4307;53.868;11.680;2023-06-26T06:55:16;29.90;80.30
8539;DHT22;4307;53.868;11.680;2023-06-26T06:57:42;30.00;80.20
8539;DHT22;4307;53.868;11.680;2023-06-26T07:00:11;30.10;79.80
8539;DHT22;4307;53.868;11.680;2023-06-26T07:02:42;30.30;79.80
8539;DHT22;4307;53.868;11.680;2023-06-26T07:05:11;30.60;79.50
8539;DHT22;4307;53.868;11.680;2023-06-26T07:07:39;30.70;79.10
8539;DHT22;4307;53.868;11.680;2023-06-26T07:10:07;31.00;78.80
8539;DHT22;4307;53.868;11.680;2023-06-26T07:12:34;31.10;77.90
8539;DHT22;4307;53.868;11.680;2023-06-26T07:15:01;31.20;77.70
8539;DHT22;4307;53.868;11.680;2023-06-26T07:17:29;31.40;77.40
8539;DHT22;4307;53.868;11.680;2023-06-26T07:19:56;31.50;77.20
8539;DHT22;4307;53.868;11.680;2023-06-26T07:22:24;31.50;76.50
8539;DHT22;4307;53.868;11.680;2023-06-26T07:24:51;31.50;75.70
8539;DHT22;4307;53.868;11.680;2023-06-26T07:27:20;31.50;75.80
8539;DHT22;4307;53.868;11.680;2023-06-26T07:29:47;31.50;75.40
8539;DHT22;4307;53.868;11.680;2023-06-26T07:32:13;31.40;75.20
8539;DHT22;4307;53.868;11.680;2023-06-26T07:34:40;31.50;75.00
8539;DHT22;4307;53.868;11.680;2023-06-26T07:37:07;31.50;74.60
8539;DHT22;4307;53.868;11.680;2023-06-26T07:39:35;31.60;74.50
8539;DHT22;4307;53.868;11.680;2023-06-26T07:42:02;31.60;74.20
8539;DHT22;4307;53.868;11.680;2023-06-26T07:44:29;31.70;73.50
8539;DHT22;4307;53.868;11.680;2023-06-26T07:46:55;31.60;73.00
8539;DHT22;4307;53.868;11.680;2023-06-26T07:49:22;31.40;73.00
8539;DHT22;4307;53.868;11.680;2023-06-26T07:51:48;31.30;73.50
8539;DHT22;4307;53.868;11.680;2023-06-26T07:54:15;31.30;73.50
8539;DHT22;4307;53.868;11.680;2023-06-26T07:56:57;31.30;73.00
8539;DHT22;4307;53.868;11.680;2023-06-26T07:59:25;31.30;72.70
8539;DHT22;4307;53.868;11.680;2023-06-26T08:01:54;31.30;72.40
8539;DHT22;4307;53.868;11.680;2023-06-26T08:04:22;31.20;72.10
8539;DHT22;4307;53.868;11.680;2023-06-26T08:06:51;31.20;71.80
8539;DHT22;4307;53.868;11.680;2023-06-26T08:09:19;31.20;71.80
8539;DHT22;4307;53.868;11.680;2023-06-26T08:11:46;31.20;72.10
8539;DHT22;4307;53.868;11.680;2023-06-26T08:14:14;31.20;71.80
8539;DHT22;4307;53.868;11.680;2023-06-26T08:16:42;31.10;71.90
8539;DHT22;4307;53.868;11.680;2023-06-26T08:19:09;31.10;72.40
8539;DHT22;4307;53.868;11.680;2023-06-26T08:21:36;31.10;72.30
8539;DHT22;4307;53.868;11.680;2023-06-26T08:24:02;31.10;72.10
8539;DHT22;4307;53.868;11.680;2023-06-26T08:26:29;31.00;72.00
8539;DHT22;4307;53.868;11.680;2023-06-26T08:28:56;30.90;72.40
8539;DHT22;4307;53.868;11.680;2023-06-26T08:31:24;31.00;72.60
8539;DHT22;4307;53.868;11.680;2023-06-26T08:33:50;31.00;72.50
8539;DHT22;4307;53.868;11.680;2023-06-26T08:36:17;31.10;72.50
8539;DHT22;4307;53.868;11.680;2023-06-26T08:38:44;31.10;71.90
8539;DHT22;4307;53.868;11.680;2023-06-26T08:41:11;31.10;71.60
8539;DHT22;4307;53.868;11.680;2023-06-26T08:43:38;31.10;71.40
8539;DHT22;4307;53.868;11.680;2023-06-26T08:46:04;31.00;70.80
8539;DHT22;4307;53.868;11.680;2023-06-26T08:48:33;30.90;71.00
8539;DHT22;4307;53.868;11.680;2023-06-26T08:51:02;30.90;70.80
8539;DHT22;4307;53.868;11.680;2023-06-26T08:53:35;30.90;71.60
8539;DHT22;4307;53.868;11.680;2023-06-26T08:56:07;30.90;70.70
8539;DHT22;4307;53.868;11.680;2023-06-26T08:58:35;30.90;70.80
8539;DHT22;4307;53.868;11.680;2023-06-26T09:01:04;30.90;70.50
8539;DHT22;4307;53.868;11.680;2023-06-26T09:03:33;30.80;70.50
8539;DHT22;4307;53.868;11.680;2023-06-26T09:05:59;30.80;70.20
8539;DHT22;4307;53.868;11.680;2023-06-26T09:08:26;30.80;70.30
8539;DHT22;4307;53.868;11.680;2023-06-26T09:10:53;30.70;70.20
8539;DHT22;4307;53.868;11.680;2023-06-26T09:13:19;30.70;70.00
8539;DHT22;4307;53.868;11.680;2023-06-26T09:15:46;30.60;70.00
8539;DHT22;4307;53.868;11.680;2023-06-26T09:18:13;30.70;70.10
8539;DHT22;4307;53.868;11.680;2023-06-26T09:20:44;30.60;70.20
8539;DHT22;4307;53.868;11.680;2023-06-26T09:23:10;30.60;70.50
8539;DHT22;4307;53.868;11.680;2023-06-26T09:25:38;30.60;70.10
8539;DHT22;4307;53.868;11.680;2023-06-26T09:28:05;30.70;70.20
8539;DHT22;4307;53.868;11.680;2023-06-26T09:30:33;30.80;69.70
8539;DHT22;4307;53.868;11.680;2023-06-26T09:33:13;30.80;69.30
8539;DHT22;4307;53.868;11.680;2023-06-26T09:35:40;30.80;68.90
8539;DHT22;4307;53.868;11.680;2023-06-26T09:38:08;30.70;69.40
8539;DHT22;4307;53.868;11.680;2023-06-26T09:40:34;30.80;69.40
8539;DHT22;4307;53.868;11.680;2023-06-26T09:43:03;30.80;69.30
8539;DHT22;4307;53.868;11.680;2023-06-26T09:45:31;30.80;68.90
8539;DHT22;4307;53.868;11.680;2023-06-26T09:48:00;30.80;69.00
8539;DHT22;4307;53.868;11.680;2023-06-26T09:50:29;30.90;69.10
8539;DHT22;4307;53.868;11.680;2023-06-26T09:52:57;30.80;69.40
8539;DHT22;4307;53.868;11.680;2023-06-26T09:55:26;30.90;69.30
8539;DHT22;4307;53.868;11.680;2023-06-26T09:57:56;31.00;69.20
8539;DHT22;4307;53.868;11.680;2023-06-26T10:00:25;31.10;69.10
8539;DHT22;4307;53.868;11.680;2023-06-26T10:02:52;31.20;69.30
8539;DHT22;4307;53.868;11.680;2023-06-26T10:05:21;31.40;69.00
8539;DHT22;4307;53.868;11.680;2023-06-26T10:07:48;31.40;68.00
8539;DHT22;4307;53.868;11.680;2023-06-26T10:10:16;31.40;67.50
8539;DHT22;4307;53.868;11.680;2023-06-26T10:12:48;31.40;67.40
8539;DHT22;4307;53.868;11.680;2023-06-26T10:15:15;31.30;66.90
8539;DHT22;4307;53.868;11.680;2023-06-26T10:17:46;31.20;66.80
8539;DHT22;4307;53.868;11.680;2023-06-26T10:20:14;31.10;67.20
8539;DHT22;4307;53.868;11.680;2023-06-26T10:22:44;31.10;67.40
8539;DHT22;4307;53.868;11.680;2023-06-26T10:25:14;31.10;67.40
8539;DHT22;4307;53.868;11.680;2023-06-26T10:27:46;31.10;67.30
8539;DHT22;4307;53.868;11.680;2023-06-26T10:30:26;31.10;67.60
8539;DHT22;4307;53.868;11.680;2023-06-26T10:32:54;31.10;67.60
8539;DHT22;4307;53.868;11.680;2023-06-26T10:35:22;31.20;67.70
8539;DHT22;4307;53.868;11.680;2023-06-26T10:37:50;31.20;67.50
8539;DHT22;4307;53.868;11.680;2023-06-26T10:40:22;31.30;67.60
8539;DHT22;4307;53.868;11.680;2023-06-26T10:42:50;31.30;67.30
8539;DHT22;4307;53.868;11.680;2023-06-26T10:45:19;31.40;67.30
8539;DHT22;4307;53.868;11.680;2023-06-26T10:47:47;31.40;67.10
8539;DHT22;4307;53.868;11.680;2023-06-26T10:50:22;31.40;67.00
8539;DHT22;4307;53.868;11.680;2023-06-26T10:53:11;31.40;66.90
8539;DHT22;4307;53.868;11.680;2023-06-26T10:55:43;31.40;67.10
8539;DHT22;4307;53.868;11.680;2023-06-26T10:58:31;31.40;67.30
8539;DHT22;4307;53.868;11.680;2023-06-26T11:01:20;31.40;67.80
8539;DHT22;4307;53.868;11.680;2023-06-26T11:03:49;31.60;67.90
8539;DHT22;4307;53.868;11.680;2023-06-26T11:06:18;31.70;67.10
8539;DHT22;4307;53.868;11.680;2023-06-26T11:08:46;31.80;66.50
8539;DHT22;4307;53.868;11.680;2023-06-26T11:11:13;31.70;66.60
8539;DHT22;4307;53.868;11.680;2023-06-26T11:13:42;31.70;67.10
8539;DHT22;4307;53.868;11.680;2023-06-26T11:16:09;31.80;67.10
8539;DHT22;4307;53.868;11.680;2023-06-26T11:18:38;31.80;66.80
8539;DHT22;4307;53.868;11.680;2023-06-26T11:21:05;31.80;66.50
8539;DHT22;4307;53.868;11.680;2023-06-26T11:23:33;31.70;66.00
8539;DHT22;4307;53.868;11.680;2023-06-26T11:26:13;31.50;66.40
8539;DHT22;4307;53.868;11.680;2023-06-26T11:28:46;31.40;66.90
8539;DHT22;4307;53.868;11.680;2023-06-26T11:31:26;31.10;67.70
8539;DHT22;4307;53.868;11.680;2023-06-26T11:33:53;30.60;69.20
8539;DHT22;4307;53.868;11.680;2023-06-26T11:36:23;30.40;70.10
8539;DHT22;4307;53.868;11.680;2023-06-26T11:38:53;30.30;70.10
8539;DHT22;4307;53.868;11.680;2023-06-26T11:41:20;30.30;69.90
8539;DHT22;4307;53.868;11.680;2023-06-26T11:43:49;30.30;69.50
8539;DHT22;4307;53.868;11.680;2023-06-26T11:46:16;30.30;69.40
8539;DHT22;4307;53.868;11.680;2023-06-26T11:48:43;30.30;70.00
8539;DHT22;4307;53.868;11.680;2023-06-26T11:51:12;30.30;70.90
8539;DHT22;4307;53.868;11.680;2023-06-26T11:53:40;30.00;73.40
8539;DHT22;4307;53.868;11.680;2023-06-26T11:56:08;29.50;75.90
8539;DHT22;4307;53.868;11.680;2023-06-26T11:58:35;28.90;79.00
8539;DHT22;4307;53.868;11.680;2023-06-26T12:01:03;28.30;82.50
8539;DHT22;4307;53.868;11.680;2023-06-26T12:03:32;27.70;85.50
8539;DHT22;4307;53.868;11.680;2023-06-26T12:05:59;27.10;88.40
8539;DHT22;4307;53.868;11.680;2023-06-26T12:08:28;26.60;90.10
8539;DHT22;4307;53.868;11.680;2023-06-26T12:10:56;26.20;90.70
8539;DHT22;4307;53.868;11.680;2023-06-26T12:13:22;25.90;91.20
8539;DHT22;4307;53.868;11.680;2023-06-26T12:15:49;25.70;91.70
8539;DHT22;4307;53.868;11.680;2023-06-26T12:18:17;25.40;92.20
8539;DHT22;4307;53.868;11.680;2023-06-26T12:20:46;25.20;92.50
8539;DHT22;4307;53.868;11.680;2023-06-26T12:23:13;25.10;92.90
8539;DHT22;4307;53.868;11.680;2023-06-26T12:25:39;24.90;93.00
8539;DHT22;4307;53.868;11.680;2023-06-26T12:28:15;24.90;93.90
8539;DHT22;4307;53.868;11.680;2023-06-26T12:30:46;24.80;94.10
8539;DHT22;4307;53.868;11.680;2023-06-26T12:33:13;24.70;94.30
8539;DHT22;4307;53.868;11.680;2023-06-26T12:35:42;24.60;94.50
8539;DHT22;4307;53.868;11.680;2023-06-26T12:38:09;24.50;94.40
8539;DHT22;4307;53.868;11.680;2023-06-26T12:40:45;24.40;94.40
8539;DHT22;4307;53.868;11.680;2023-06-26T12:43:22;24.30;94.60
8539;DHT22;4307;53.868;11.680;2023-06-26T12:45:54;24.10;94.70
8539;DHT22;4307;53.868;11.680;2023-06-26T12:48:20;23.90;94.80
8539;DHT22;4307;53.868;11.680;2023-06-26T12:50:49;23.80;95.00
8539;DHT22;4307;53.868;11.680;2023-06-26T12:53:16;23.70;95.40
8539;DHT22;4307;53.868;11.680;2023-06-26T12:55:42;23.50;96.00
8539;DHT22;4307;53.868;11.680;2023-06-26T12:58:09;23.30;96.60
8539;DHT22;4307;53.868;11.680;2023-06-26T13:00:36;23.10;96.90
8539;DHT22;4307;53.868;11.680;2023-06-26T13:03:02;23.00;97.20
8539;DHT22;4307;53.868;11.680;2023-06-26T13:05:29;23.00;97.50
8539;DHT22;4307;53.868;11.680;2023-06-26T13:07:57;22.90;97.80
8539;DHT22;4307;53.868;11.680;2023-06-26T13:10:25;22.90;98.10
8539;DHT22;4307;53.868;11.680;2023-06-26T13:12:54;22.80;98.40
8539;DHT22;4307;53.868;11.680;2023-06-26T13:15:21;22.80;98.70
8539;DHT22;4307;53.868;11.680;2023-06-26T13:17:47;22.80;99.00
8539;DHT22;4307;53.868;11.680;2023-06-26T13:20:14;22.80;99.40
8539;DHT22;4307;53.868;11.680;2023-06-26T13:22:40;22.80;99.80
8539;DHT22;4307;53.868;11.680;2023-06-26T13:25:09;22.90;99.90
8539;DHT22;4307;53.868;11.680;2023-06-26T13:27:35;22.90;99.90
8539;DHT22;4307;53.868;11.680;2023-06-26T13:30:02;23.10;99.90
8539;DHT22;4307;53.868;11.680;2023-06-26T13:32:29;23.30;99.90
8539;DHT22;4307;53.868;11.680;2023-06-26T13:34:56;23.40;99.90
8539;DHT22;4307;53.868;11.680;2023-06-26T13:37:23;23.70;99.90
8539;DHT22;4307;53.868;11.680;2023-06-26T13:39:49;24.00;99.90
8539;DHT22;4307;53.868;11.680;2023-06-26T13:42:18;24.20;99.90
8539;DHT22;4307;53.868;11.680;2023-06-26T13:44:44;24.40;99.90
8539;DHT22;4307;53.868;11.680;2023-06-26T13:47:13;24.60;99.90
8539;DHT22;4307;53.868;11.680;2023-06-26T13:49:40;24.70;99.90
8539;DHT22;4307;53.868;11.680;2023-06-26T13:52:07;24.80;99.90
8539;DHT22;4307;53.868;11.680;2023-06-26T13:54:34;24.90;99.90
8539;DHT22;4307;53.868;11.680;2023-06-26T13:57:02;24.90;99.70
8539;DHT22;4307;53.868;11.680;2023-06-26T13:59:33;25.00;99.50
8539;DHT22;4307;53.868;11.680;2023-06-26T14:02:00;24.90;99.30
8539;DHT22;4307;53.868;11.680;2023-06-26T14:04:26;24.90;99.10
8539;DHT22;4307;53.868;11.680;2023-06-26T14:06:53;24.80;98.90
8539;DHT22;4307;53.868;11.680;2023-06-26T14:09:20;24.70;98.50
8539;DHT22;4307;53.868;11.680;2023-06-26T14:11:47;24.50;97.70
8539;DHT22;4307;53.868;11.680;2023-06-26T14:14:14;24.40;97.20
8539;DHT22;4307;53.868;11.680;2023-06-26T14:16:42;24.20;96.80
8539;DHT22;4307;53.868;11.680;2023-06-26T14:19:08;24.10;96.50
8539;DHT22;4307;53.868;11.680;2023-06-26T14:21:38;24.00;96.40
8539;DHT22;4307;53.868;11.680;2023-06-26T14:24:05;24.00;96.30
8539;DHT22;4307;53.868;11.680;2023-06-26T14:26:32;24.00;96.10
8539;DHT22;4307;53.868;11.680;2023-06-26T14:28:59;24.00;95.70
8539;DHT22;4307;53.868;11.680;2023-06-26T14:31:26;24.00;95.30
8539;DHT22;4307;53.868;11.680;2023-06-26T14:33:54;24.00;95.10
8539;DHT22;4307;53.868;11.680;2023-06-26T14:36:20;24.20;94.50
8539;DHT22;4307;53.868;11.680;2023-06-26T14:38:47;24.30;94.10
8539;DHT22;4307;53.868;11.680;2023-06-26T14:41:14;24.50;93.50
8539;DHT22;4307;53.868;11.680;2023-06-26T14:43:40;24.60;92.90
8539;DHT22;4307;53.868;11.680;2023-06-26T14:46:07;24.70;92.40
8539;DHT22;4307;53.868;11.680;2023-06-26T14:48:34;24.70;92.10
8539;DHT22;4307;53.868;11.680;2023-06-26T14:51:02;24.80;91.70
8539;DHT22;4307;53.868;11.680;2023-06-26T14:53:28;24.80;91.40
8539;DHT22;4307;53.868;11.680;2023-06-26T14:55:55;24.70;91.20
8539;DHT22;4307;53.868;11.680;2023-06-26T14:58:22;24.80;91.00
8539;DHT22;4307;53.868;11.680;2023-06-26T15:00:48;24.80;90.50
8539;DHT22;4307;53.868;11.680;2023-06-26T15:03:15;24.70;90.10
8539;DHT22;4307;53.868;11.680;2023-06-26T15:05:42;24.70;89.70
8539;DHT22;4307;53.868;11.680;2023-06-26T15:08:10;24.80;89.50
8539;DHT22;4307;53.868;11.680;2023-06-26T15:10:36;24.80;88.70
8539;DHT22;4307;53.868;11.680;2023-06-26T15:13:03;24.70;88.50
8539;DHT22;4307;53.868;11.680;2023-06-26T15:15:30;24.70;88.20
8539;DHT22;4307;53.868;11.680;2023-06-26T15:17:57;24.60;87.80
8539;DHT22;4307;53.868;11.680;2023-06-26T15:20:24;24.60;87.30
8539;DHT22;4307;53.868;11.680;2023-06-26T15:22:50;24.60;87.00
8539;DHT22;4307;53.868;11.680;2023-06-26T15:25:19;24.60;86.30
8539;DHT22;4307;53.868;11.680;2023-06-26T15:27:46;24.60;86.40
8539;DHT22;4307;53.868;11.680;2023-06-26T15:30:13;24.60;86.40
8539;DHT22;4307;53.868;11.680;2023-06-26T15:32:40;24.50;86.30
8539;DHT22;4307;53.868;11.680;2023-06-26T15:35:07;24.40;86.20
8539;DHT22;4307;53.868;11.680;2023-06-26T15:37:34;24.40;86.10
8539;DHT22;4307;53.868;11.680;2023-06-26T15:40:01;24.40;86.10
8539;DHT22;4307;53.868;11.680;2023-06-26T15:42:29;24.40;86.20
8539;DHT22;4307;53.868;11.680;2023-06-26T15:44:56;24.40;85.80
8539;DHT22;4307;53.868;11.680;2023-06-26T15:47:22;24.40;85.20
8539;DHT22;4307;53.868;11.680;2023-06-26T15:49:49;24.30;84.00